Time;durP1;ratioP1;P1;durP2;ratioP2;P2;SDS_P1;SDS_P2;PMS_P1;PMS_P2;Temp;Humidity;BMP_temperature;BMP_pressure;BME280_temperature;BME280_humidity;BME280_pressure;Samples;Min_cycle;Max_cycle;Signal;HPM_P1;HPM_P2
2020/12/16 00:01:17;;;;;;;17.73;13.38;;;7.50;99.90;;;;;;5089238;28;20200;-83
2020/12/16 00:03:45;;;;;;;16.95;13.00;;;7.50;99.90;;;;;;5089134;28;20657;-82
2020/12/16 00:06:11;;;;;;;23.52;13.55;;;7.50;99.90;;;;;;5087550;28;20224;-81
2020/12/16 00:08:37;;;;;;;15.85;12.43;;;7.50;99.90;;;;;;5089598;28;20267;-82
2020/12/16 00:11:04;;;;;;;17.52;12.65;;;7.40;99.90;;;;;;5088022;28;20203;-78
2020/12/16 00:13:31;;;;;;;16.13;12.88;;;7.40;99.90;;;;;;5087363;28;20194;-78
2020/12/16 00:15:57;;;;;;;15.70;11.85;;;7.40;99.90;;;;;;5088267;28;20264;-78
2020/12/16 00:18:24;;;;;;;20.23;13.75;;;7.30;99.90;;;;;;5088603;28;20195;-83
2020/12/16 00:20:50;;;;;;;18.08;14.27;;;7.30;99.90;;;;;;5088080;28;20199;-82
2020/12/16 00:23:16;;;;;;;20.38;14.52;;;7.30;99.90;;;;;;5088666;28;20197;-81
2020/12/16 00:25:43;;;;;;;21.85;15.27;;;7.40;99.90;;;;;;5088416;28;20239;-81
2020/12/16 00:28:10;;;;;;;22.77;14.80;;;7.30;99.90;;;;;;5087280;28;20218;-83
2020/12/16 00:30:38;;;;;;;19.75;14.77;;;7.30;99.90;;;;;;5087428;28;20270;-81
2020/12/16 00:33:04;;;;;;;20.48;14.90;;;7.30;99.90;;;;;;5088278;28;20259;-79
2020/12/16 00:35:30;;;;;;;22.48;15.20;;;7.30;99.90;;;;;;5088479;28;20217;-82
2020/12/16 00:37:57;;;;;;;24.17;15.35;;;7.30;99.90;;;;;;5088053;28;20194;-82
2020/12/16 00:40:25;;;;;;;21.23;14.93;;;7.20;99.90;;;;;;5088909;28;20202;-82
2020/12/16 00:42:51;;;;;;;20.63;14.90;;;7.20;99.90;;;;;;5087121;28;20265;-78
2020/12/16 00:45:19;;;;;;;19.65;14.30;;;7.20;99.90;;;;;;5087170;28;20629;-79
2020/12/16 00:47:47;;;;;;;24.35;14.68;;;7.20;99.90;;;;;;5087761;28;20214;-82
2020/12/16 00:50:15;;;;;;;18.73;14.38;;;7.20;99.90;;;;;;5088220;28;20224;-82
2020/12/16 00:52:42;;;;;;;19.35;15.25;;;7.20;99.90;;;;;;5088679;28;20216;-79
2020/12/16 00:55:08;;;;;;;20.08;14.45;;;7.20;99.90;;;;;;5087451;28;20243;-81
2020/12/16 00:57:34;;;;;;;23.13;16.05;;;7.20;99.90;;;;;;5087301;28;20208;-81
2020/12/16 01:00:01;;;;;;;22.52;14.82;;;7.20;99.90;;;;;;5088085;28;20190;-82
2020/12/16 01:02:27;;;;;;;19.20;13.65;;;7.20;99.90;;;;;;5088357;28;20239;-81
2020/12/16 01:04:54;;;;;;;19.98;14.85;;;7.20;99.90;;;;;;5088701;28;20196;-82
2020/12/16 01:07:21;;;;;;;20.85;14.63;;;7.20;99.90;;;;;;5087948;28;20220;-81
2020/12/16 01:09:47;;;;;;;18.70;14.05;;;7.30;99.90;;;;;;5088333;28;20199;-79
2020/12/16 01:12:13;;;;;;;20.55;16.02;;;7.20;99.90;;;;;;5087862;28;20197;-82
2020/12/16 01:14:39;;;;;;;20.63;14.57;;;7.30;99.90;;;;;;5084655;28;20197;-83
2020/12/16 01:17:06;;;;;;;18.05;14.40;;;7.30;99.90;;;;;;5083203;28;20216;-81
2020/12/16 01:19:32;;;;;;;21.63;14.90;;;7.20;99.90;;;;;;5088532;28;20209;-81
2020/12/16 01:21:59;;;;;;;19.40;14.30;;;7.20;99.90;;;;;;5088093;28;20199;-82
2020/12/16 01:24:27;;;;;;;24.20;15.82;;;7.30;99.90;;;;;;5089453;28;20560;-82
2020/12/16 01:26:54;;;;;;;21.95;16.70;;;7.20;99.90;;;;;;5091022;28;20232;-81
2020/12/16 01:29:21;;;;;;;21.45;16.00;;;7.30;99.90;;;;;;5091617;28;20190;-81
2020/12/16 01:31:48;;;;;;;24.17;16.02;;;7.40;99.90;;;;;;5091886;28;20199;-80
2020/12/16 01:34:19;;;;;;;22.48;17.38;;;7.40;99.90;;;;;;5082310;28;20198;-79
2020/12/16 01:36:47;;;;;;;26.50;18.30;;;7.40;99.90;;;;;;5079137;28;20301;-82
2020/12/16 01:39:15;;;;;;;28.15;17.58;;;7.50;99.90;;;;;;5080848;28;20256;-80
2020/12/16 01:41:42;;;;;;;26.00;18.23;;;7.60;99.90;;;;;;5081609;28;20291;-82
2020/12/16 01:44:10;;;;;;;24.42;17.55;;;7.60;99.90;;;;;;5082624;28;20190;-80
2020/12/16 01:46:38;;;;;;;26.70;18.17;;;7.70;99.90;;;;;;5082460;28;20219;-80
2020/12/16 01:49:04;;;;;;;29.88;19.02;;;7.70;99.90;;;;;;5083278;28;20209;-80
2020/12/16 01:51:32;;;;;;;26.90;19.27;;;7.80;99.90;;;;;;5084425;28;20404;-82
2020/12/16 01:54:00;;;;;;;28.67;19.17;;;7.80;99.90;;;;;;5084490;28;20196;-82
2020/12/16 01:56:29;;;;;;;29.70;20.17;;;7.90;99.90;;;;;;5084666;28;20240;-81
2020/12/16 01:58:58;;;;;;;29.70;18.65;;;7.90;99.90;;;;;;5085104;28;20194;-81
2020/12/16 02:01:24;;;;;;;24.85;18.17;;;7.80;99.90;;;;;;5086124;28;20195;-82
2020/12/16 02:03:54;;;;;;;24.23;17.48;;;7.80;99.90;;;;;;5086966;28;20195;-80
2020/12/16 02:06:23;;;;;;;29.48;17.77;;;7.70;99.90;;;;;;5086518;28;20218;-81
2020/12/16 02:08:58;;;;;;;24.30;16.17;;;7.70;99.90;;;;;;5087882;28;20201;-80
2020/12/16 02:11:24;;;;;;;25.88;18.20;;;7.70;99.90;;;;;;5088606;28;20254;-81
2020/12/16 02:13:52;;;;;;;25.00;17.15;;;7.70;99.90;;;;;;5087111;28;20209;-81
2020/12/16 02:16:19;;;;;;;28.02;18.73;;;7.60;99.90;;;;;;5087607;28;20214;-83
2020/12/16 02:18:47;;;;;;;30.25;17.27;;;7.60;99.90;;;;;;5088124;28;20190;-82
2020/12/16 02:21:13;;;;;;;26.45;18.55;;;7.60;99.90;;;;;;5089275;28;20259;-82
2020/12/16 02:23:42;;;;;;;27.25;17.98;;;7.50;99.90;;;;;;5089594;28;20199;-81
2020/12/16 02:26:10;;;;;;;26.05;16.77;;;7.50;99.90;;;;;;5089036;28;20235;-80
2020/12/16 02:28:36;;;;;;;29.63;18.90;;;7.50;99.90;;;;;;5089043;28;20217;-81
2020/12/16 02:31:03;;;;;;;25.63;18.10;;;7.40;99.90;;;;;;5089689;28;20598;-81
2020/12/16 02:33:29;;;;;;;25.77;17.42;;;7.40;99.90;;;;;;5089909;28;20244;-80
2020/12/16 02:35:55;;;;;;;25.63;17.65;;;7.40;99.90;;;;;;5088317;28;20221;-83
2020/12/16 02:38:21;;;;;;;23.08;17.65;;;7.30;99.90;;;;;;5089999;28;20195;-82
2020/12/16 02:40:48;;;;;;;23.58;16.98;;;7.30;99.90;;;;;;5089270;28;20194;-81
2020/12/16 02:43:15;;;;;;;23.38;16.00;;;7.30;99.90;;;;;;5088647;28;20200;-83
2020/12/16 02:45:41;;;;;;;26.08;16.45;;;7.20;99.90;;;;;;5089562;28;20218;-81
2020/12/16 02:48:07;;;;;;;24.80;17.70;;;7.20;99.90;;;;;;5089439;28;20214;-81
2020/12/16 02:50:34;;;;;;;27.85;17.45;;;7.20;99.90;;;;;;5089576;28;20218;-82
2020/12/16 02:53:00;;;;;;;24.20;17.40;;;7.20;99.90;;;;;;5090062;28;20258;-81
2020/12/16 02:55:26;;;;;;;24.58;16.42;;;7.30;99.90;;;;;;5089603;28;20299;-81
2020/12/16 02:57:52;;;;;;;29.50;17.77;;;7.30;99.90;;;;;;5088779;28;20183;-81
2020/12/16 03:00:21;;;;;;;26.90;18.55;;;7.30;99.90;;;;;;5089175;28;20190;-82
2020/12/16 03:02:48;;;;;;;27.50;18.63;;;7.30;99.90;;;;;;5089061;28;20200;-82
2020/12/16 03:05:14;;;;;;;24.77;17.77;;;7.30;99.90;;;;;;5089374;28;20254;-81
2020/12/16 03:07:40;;;;;;;21.40;17.13;;;7.20;99.90;;;;;;5089304;28;20214;-83
2020/12/16 03:10:06;;;;;;;26.38;18.98;;;7.30;99.90;;;;;;5088766;28;20201;-79
2020/12/16 03:12:34;;;;;;;23.95;18.38;;;7.30;99.90;;;;;;5089057;28;20208;-81
2020/12/16 03:15:00;;;;;;;26.65;19.35;;;7.20;99.90;;;;;;5088808;28;20203;-83
2020/12/16 03:17:27;;;;;;;24.52;17.77;;;7.20;99.90;;;;;;5088943;28;20195;-80
2020/12/16 03:19:54;;;;;;;22.58;17.63;;;7.20;99.90;;;;;;5089569;28;20198;-82
2020/12/16 03:22:20;;;;;;;26.08;18.23;;;7.20;99.90;;;;;;5090259;28;20205;-81
2020/12/16 03:24:46;;;;;;;26.33;18.10;;;7.10;99.90;;;;;;5089151;28;20194;-83
2020/12/16 03:27:12;;;;;;;28.67;18.33;;;7.20;99.90;;;;;;5088233;28;20233;-80
2020/12/16 03:29:39;;;;;;;25.23;17.70;;;7.10;99.90;;;;;;5090044;28;20182;-82
2020/12/16 03:32:05;;;;;;;30.75;19.58;;;7.10;99.90;;;;;;5088855;28;20208;-83
2020/12/16 03:34:32;;;;;;;27.58;17.60;;;7.10;99.90;;;;;;5088691;28;20209;-82
2020/12/16 03:36:59;;;;;;;26.52;19.20;;;7.20;99.90;;;;;;5088848;28;20245;-81
2020/12/16 03:39:26;;;;;;;31.48;18.13;;;7.10;99.90;;;;;;5089420;28;20203;-82
2020/12/16 03:41:52;;;;;;;25.10;18.02;;;7.10;99.90;;;;;;5088501;28;20195;-81
2020/12/16 03:44:19;;;;;;;27.23;18.38;;;7.10;99.90;;;;;;5087309;28;20194;-81
2020/12/16 03:46:45;;;;;;;25.30;16.45;;;7.10;99.90;;;;;;5086795;28;20220;-82
2020/12/16 03:49:11;;;;;;;33.40;19.60;;;7.00;99.90;;;;;;5087658;28;20262;-83
2020/12/16 03:51:38;;;;;;;23.95;16.83;;;7.00;99.90;;;;;;5087099;28;20211;-80
2020/12/16 03:54:04;;;;;;;24.65;17.63;;;6.90;99.90;;;;;;5087946;28;20205;-82
2020/12/16 03:56:31;;;;;;;29.52;18.58;;;6.90;99.90;;;;;;5085679;28;20307;-81
2020/12/16 03:58:57;;;;;;;23.48;15.82;;;6.90;99.90;;;;;;5085671;28;20280;-81
2020/12/16 04:01:23;;;;;;;26.23;17.58;;;6.80;99.90;;;;;;5085924;28;20194;-81
2020/12/16 04:03:50;;;;;;;24.63;16.60;;;6.80;99.90;;;;;;5085768;28;20251;-81
2020/12/16 04:06:17;;;;;;;22.90;16.80;;;6.80;99.90;;;;;;5085959;28;20214;-81
2020/12/16 04:08:45;;;;;;;25.27;16.65;;;6.70;99.90;;;;;;5086531;28;20219;-80
2020/12/16 04:11:14;;;;;;;27.17;17.85;;;6.70;99.90;;;;;;5086181;28;20195;-81
2020/12/16 04:13:40;;;;;;;23.95;16.83;;;6.80;99.90;;;;;;5086142;28;20262;-80
2020/12/16 04:16:10;;;;;;;22.88;17.48;;;6.70;99.90;;;;;;5085910;28;20225;-82
2020/12/16 04:18:36;;;;;;;24.88;16.13;;;6.80;99.90;;;;;;5086516;28;20260;-81
2020/12/16 04:21:04;;;;;;;27.33;18.17;;;6.80;99.90;;;;;;5087042;28;20197;-81
2020/12/16 04:23:30;;;;;;;25.05;15.73;;;6.70;99.90;;;;;;5086996;28;20195;-82
2020/12/16 04:25:57;;;;;;;29.65;17.67;;;6.70;99.90;;;;;;5086604;28;20283;-81
2020/12/16 04:28:23;;;;;;;24.65;16.90;;;6.70;99.90;;;;;;5087039;28;20210;-83
2020/12/16 04:30:50;;;;;;;29.23;18.98;;;6.60;99.90;;;;;;5087508;28;20190;-82
2020/12/16 04:33:16;;;;;;;28.13;17.00;;;6.60;99.90;;;;;;5085578;28;20194;-81
2020/12/16 04:35:42;;;;;;;26.42;16.83;;;6.50;99.90;;;;;;5085239;28;20218;-83
2020/12/16 04:38:09;;;;;;;27.13;17.05;;;6.40;99.90;;;;;;5085568;28;20189;-81
2020/12/16 04:40:35;;;;;;;26.45;17.02;;;6.40;99.90;;;;;;5086405;28;20207;-81
2020/12/16 04:43:05;;;;;;;31.85;17.75;;;6.30;99.90;;;;;;5086582;28;20194;-80
2020/12/16 04:45:36;;;;;;;25.73;18.15;;;6.30;99.90;;;;;;5079238;28;20210;-80
2020/12/16 04:48:03;;;;;;;37.92;19.88;;;6.30;99.90;;;;;;5084685;28;20658;-81
2020/12/16 04:50:30;;;;;;;30.70;19.40;;;6.30;99.90;;;;;;5085897;28;20263;-82
2020/12/16 04:53:01;;;;;;;25.50;18.33;;;6.30;99.90;;;;;;5085370;28;20243;-81
2020/12/16 04:55:28;;;;;;;30.27;18.02;;;6.20;99.90;;;;;;5083914;28;20263;-81
2020/12/16 04:57:54;;;;;;;27.70;17.92;;;6.20;99.90;;;;;;5085510;28;20208;-81
2020/12/16 05:00:24;;;;;;;24.90;17.52;;;6.20;99.90;;;;;;5089212;28;20202;-82
2020/12/16 05:02:53;;;;;;;27.73;18.48;;;6.20;99.90;;;;;;5090327;28;20186;-81
2020/12/16 05:05:19;;;;;;;25.40;16.63;;;6.10;99.90;;;;;;5089026;28;20231;-79
2020/12/16 05:07:48;;;;;;;25.40;17.05;;;6.10;99.90;;;;;;5088848;28;20210;-81
2020/12/16 05:10:15;;;;;;;25.60;17.23;;;6.10;99.90;;;;;;5090105;28;20257;-81
2020/12/16 05:12:43;;;;;;;30.20;17.95;;;6.10;99.90;;;;;;5089885;28;20194;-82
2020/12/16 05:15:23;;;;;;;22.38;16.48;;;6.10;99.90;;;;;;5090225;28;20201;-80
2020/12/16 05:18:13;;;;;;;27.20;17.52;;;6.10;99.90;;;;;;5089160;28;20190;-80
2020/12/16 05:20:41;;;;;;;25.80;17.30;;;6.10;99.90;;;;;;5088549;28;20190;-81
2020/12/16 05:23:08;;;;;;;25.02;17.20;;;6.10;99.90;;;;;;5088778;28;20251;-81
2020/12/16 05:25:35;;;;;;;26.73;16.42;;;6.10;99.90;;;;;;5087915;28;20268;-81
2020/12/16 05:28:02;;;;;;;25.38;16.48;;;6.10;99.90;;;;;;5087637;28;20221;-81
2020/12/16 05:30:29;;;;;;;26.98;16.90;;;6.10;99.90;;;;;;5089470;28;20198;-81
2020/12/16 05:32:55;;;;;;;20.60;16.42;;;6.10;99.90;;;;;;5087870;28;20284;-82
2020/12/16 05:35:27;;;;;;;27.98;17.95;;;6.00;99.90;;;;;;5088767;28;20222;-82
2020/12/16 05:37:59;;;;;;;29.80;19.95;;;6.00;99.90;;;;;;5087933;28;20200;-82
2020/12/16 05:40:28;;;;;;;31.70;18.25;;;6.00;99.90;;;;;;5088661;28;20217;-80
2020/12/16 05:42:54;;;;;;;26.63;18.58;;;5.90;99.90;;;;;;5088315;28;20202;-81
2020/12/16 05:45:23;;;;;;;21.45;16.48;;;5.90;99.90;;;;;;5088116;28;20224;-82
2020/12/16 05:48:02;;;;;;;34.00;17.92;;;5.90;99.90;;;;;;5088031;28;20210;-81
2020/12/16 05:50:50;;;;;;;28.23;18.52;;;5.90;99.90;;;;;;5089678;28;20197;-83
2020/12/16 05:53:19;;;;;;;29.45;19.23;;;5.90;99.90;;;;;;5088908;28;20658;-81
2020/12/16 05:55:51;;;;;;;28.33;18.77;;;5.90;99.90;;;;;;5088873;28;20235;-81
2020/12/16 05:58:19;;;;;;;28.45;19.50;;;5.90;99.90;;;;;;5078171;28;20189;-80
2020/12/16 06:00:54;;;;;;;32.72;19.55;;;6.00;99.90;;;;;;5088450;28;20202;-81
2020/12/16 06:03:29;;;;;;;32.55;18.90;;;5.90;99.90;;;;;;5085940;28;20204;-81
2020/12/16 06:05:58;;;;;;;27.45;17.70;;;5.90;99.90;;;;;;5085854;28;20637;-82
2020/12/16 06:08:29;;;;;;;32.85;19.85;;;6.00;99.90;;;;;;5085045;28;20214;-81
2020/12/16 06:10:55;;;;;;;34.17;19.58;;;6.00;99.90;;;;;;5086626;28;20547;-82
2020/12/16 06:13:22;;;;;;;35.10;19.80;;;6.10;99.90;;;;;;5084460;28;20558;-80
2020/12/16 06:15:57;;;;;;;32.53;20.00;;;6.10;99.90;;;;;;5082315;28;20217;-80
2020/12/16 06:18:27;;;;;;;29.67;19.25;;;6.10;99.90;;;;;;5082827;28;20178;-79
2020/12/16 06:20:54;;;;;;;34.10;21.10;;;6.20;99.90;;;;;;5083475;28;20197;-81
2020/12/16 06:23:23;;;;;;;35.42;19.90;;;6.20;99.90;;;;;;5085572;28;20195;-82
2020/12/16 06:25:51;;;;;;;30.73;18.88;;;6.20;99.90;;;;;;5084985;28;20230;-83
2020/12/16 06:28:17;;;;;;;29.60;18.95;;;6.20;99.90;;;;;;5084317;28;20214;-82
2020/12/16 06:30:52;;;;;;;39.83;21.65;;;6.20;99.90;;;;;;5085983;28;20198;-79
2020/12/16 06:33:34;;;;;;;29.92;18.20;;;6.20;99.90;;;;;;5085719;28;20182;-80
2020/12/16 06:36:03;;;;;;;34.10;19.52;;;6.10;99.90;;;;;;5085103;28;20217;-80
2020/12/16 06:38:30;;;;;;;32.33;19.85;;;6.10;99.90;;;;;;5085500;28;20285;-79
2020/12/16 06:40:57;;;;;;;35.28;19.55;;;6.20;99.90;;;;;;5084753;28;20194;-80
2020/12/16 06:43:41;;;;;;;34.70;19.80;;;6.20;99.90;;;;;;5084628;28;20194;-79
2020/12/16 06:46:45;;;;;;;33.30;21.15;;;6.20;99.90;;;;;;5084173;28;20596;-79
2020/12/16 06:49:27;;;;;;;32.38;18.02;;;6.20;99.90;;;;;;5084773;28;20198;-79
2020/12/16 06:51:55;;;;;;;38.80;20.55;;;6.20;99.90;;;;;;5085519;28;20178;-80
2020/12/16 06:54:24;;;;;;;36.30;21.27;;;6.20;99.90;;;;;;5077455;28;20224;-79
2020/12/16 06:56:51;;;;;;;35.70;20.27;;;6.30;99.90;;;;;;5078899;28;20217;-80
2020/12/16 06:59:46;;;;;;;30.75;20.77;;;6.20;99.90;;;;;;5078898;28;20605;-82
2020/12/16 07:02:14;;;;;;;30.33;18.52;;;6.20;99.90;;;;;;5080108;28;20194;-80
2020/12/16 07:04:41;;;;;;;35.80;20.17;;;6.20;99.90;;;;;;5080962;28;20194;-80
2020/12/16 07:07:27;;;;;;;33.83;19.30;;;6.30;99.90;;;;;;5080215;28;20214;-80
2020/12/16 07:09:54;;;;;;;35.00;19.88;;;6.30;99.90;;;;;;5080851;28;20197;-79
2020/12/16 07:12:29;;;;;;;30.45;18.75;;;6.30;99.90;;;;;;5080610;28;20198;-80
2020/12/16 07:14:56;;;;;;;35.17;19.70;;;6.30;99.90;;;;;;5083158;28;20245;-81
2020/12/16 07:17:22;;;;;;;27.38;18.80;;;6.30;99.90;;;;;;5084303;28;20206;-80
2020/12/16 07:19:49;;;;;;;32.53;19.77;;;6.30;99.90;;;;;;5080173;28;20194;-78
2020/12/16 07:22:16;;;;;;;40.17;18.77;;;6.30;99.90;;;;;;5078430;28;20235;-80
2020/12/16 07:24:47;;;;;;;34.45;19.60;;;6.30;99.90;;;;;;5078862;28;20288;-78
2020/12/16 07:27:18;;;;;;;36.53;20.10;;;6.30;99.90;;;;;;5078191;28;20217;-78
2020/12/16 07:29:54;;;;;;;33.90;19.48;;;6.40;99.90;;;;;;5078698;28;20245;-79
2020/12/16 07:32:22;;;;;;;34.00;18.45;;;6.40;99.90;;;;;;5077535;28;20194;-79
2020/12/16 07:34:50;;;;;;;30.30;19.05;;;6.30;99.90;;;;;;5078407;28;20567;-80
2020/12/16 07:37:19;;;;;;;32.75;17.10;;;6.30;99.90;;;;;;5077420;28;20224;-81
2020/12/16 07:39:48;;;;;;;28.98;17.42;;;6.30;99.90;;;;;;5077243;28;20267;-79
2020/12/16 07:42:20;;;;;;;23.20;16.98;;;6.30;99.90;;;;;;5078157;28;20194;-79
2020/12/16 07:44:46;;;;;;;30.38;16.95;;;6.30;99.90;;;;;;5080733;28;20241;-80
2020/12/16 07:47:14;;;;;;;26.38;16.77;;;6.40;99.90;;;;;;5078528;28;20295;-80
2020/12/16 07:49:41;;;;;;;29.77;18.50;;;6.40;99.90;;;;;;5076556;28;20191;-79
2020/12/16 07:52:08;;;;;;;28.35;18.52;;;6.50;99.90;;;;;;5075934;28;20190;-80
2020/12/16 07:54:34;;;;;;;32.63;20.08;;;6.60;99.90;;;;;;5078702;28;20205;-79
2020/12/16 07:57:01;;;;;;;28.50;18.65;;;6.60;99.90;;;;;;5077139;28;20232;-79
2020/12/16 07:59:29;;;;;;;32.30;17.80;;;6.60;99.90;;;;;;5077286;28;20532;-80
2020/12/16 08:02:07;;;;;;;30.60;18.75;;;6.60;99.90;;;;;;5076980;28;20598;-80
2020/12/16 08:04:33;;;;;;;29.40;17.48;;;6.60;99.90;;;;;;5075820;28;20189;-78
2020/12/16 08:07:11;;;;;;;28.25;16.70;;;6.70;99.90;;;;;;5076870;28;20225;-78
2020/12/16 08:09:37;;;;;;;26.45;16.30;;;6.60;99.90;;;;;;5077235;28;20174;-80
2020/12/16 08:12:04;;;;;;;28.70;18.17;;;6.70;99.90;;;;;;5077369;28;20264;-78
2020/12/16 08:14:30;;;;;;;32.85;18.20;;;6.80;99.90;;;;;;5076379;28;20198;-78
2020/12/16 08:17:09;;;;;;;34.10;19.70;;;6.80;99.90;;;;;;5076402;28;20210;-77
2020/12/16 08:19:35;;;;;;;28.30;17.95;;;7.00;99.90;;;;;;5076538;28;20259;-80
2020/12/16 08:22:14;;;;;;;32.13;21.15;;;7.10;99.90;;;;;;5077469;28;20201;-79
2020/12/16 08:24:41;;;;;;;33.65;18.90;;;7.20;99.90;;;;;;5077244;28;20201;-78
2020/12/16 08:27:08;;;;;;;34.65;19.45;;;7.30;99.90;;;;;;5076852;28;20710;-78
2020/12/16 08:29:37;;;;;;;29.08;18.38;;;7.40;99.90;;;;;;5076405;28;20202;-80
2020/12/16 08:32:05;;;;;;;29.02;19.17;;;7.40;99.90;;;;;;5076442;28;20197;-79
2020/12/16 08:34:40;;;;;;;35.60;19.55;;;7.40;99.90;;;;;;5078068;28;20203;-79
2020/12/16 08:37:10;;;;;;;38.28;20.05;;;7.50;99.90;;;;;;5080691;28;20213;-79
2020/12/16 08:39:43;;;;;;;33.47;20.23;;;7.60;99.90;;;;;;5080279;28;20190;-80
2020/12/16 08:42:11;;;;;;;40.53;21.90;;;7.60;99.90;;;;;;5079835;28;20182;-80
2020/12/16 08:44:38;;;;;;;32.80;20.02;;;7.70;99.90;;;;;;5079704;28;20694;-79
2020/12/16 08:47:04;;;;;;;29.85;19.38;;;8.10;99.90;;;;;;5080139;28;20210;-80
2020/12/16 08:49:31;;;;;;;31.20;19.02;;;8.60;99.90;;;;;;5080385;28;20206;-78
2020/12/16 08:51:57;;;;;;;24.38;17.67;;;9.30;99.90;;;;;;5080187;28;20200;-79
2020/12/16 08:54:25;;;;;;;27.15;17.63;;;9.80;99.90;;;;;;5079759;28;20590;-79
2020/12/16 08:56:53;;;;;;;25.92;17.42;;;10.10;99.90;;;;;;5079631;28;20232;-81
2020/12/16 08:59:25;;;;;;;21.17;16.17;;;10.40;99.90;;;;;;5079530;28;20201;-80
2020/12/16 09:01:53;;;;;;;19.80;14.95;;;10.80;99.90;;;;;;5080592;28;20188;-80
2020/12/16 09:04:24;;;;;;;21.48;15.25;;;11.20;99.90;;;;;;5079871;28;20209;-81
2020/12/16 09:07:01;;;;;;;21.70;16.10;;;11.30;99.90;;;;;;5081057;28;20216;-80
2020/12/16 09:09:28;;;;;;;24.60;17.67;;;11.40;99.90;;;;;;5080783;28;20199;-79
2020/12/16 09:11:55;;;;;;;25.13;17.30;;;11.30;99.90;;;;;;5082898;28;20193;-80
2020/12/16 09:14:23;;;;;;;27.23;15.63;;;11.40;99.90;;;;;;5081787;28;20219;-81
2020/12/16 09:16:49;;;;;;;23.35;16.55;;;11.70;99.90;;;;;;5080704;28;20224;-82
2020/12/16 09:19:17;;;;;;;18.92;13.68;;;12.00;99.90;;;;;;5086029;28;20197;-80
2020/12/16 09:21:43;;;;;;;18.75;13.80;;;12.20;99.90;;;;;;5085435;28;20189;-79
2020/12/16 09:24:13;;;;;;;17.15;12.80;;;12.50;99.90;;;;;;5081763;28;20616;-81
2020/12/16 09:26:42;;;;;;;14.87;11.50;;;12.90;99.90;;;;;;5080667;28;20297;-80
2020/12/16 09:29:23;;;;;;;17.20;11.90;;;13.30;99.90;;;;;;5081962;28;20475;-80
2020/12/16 09:31:52;;;;;;;17.07;12.13;;;13.70;99.90;;;;;;5081795;28;20609;-82
2020/12/16 09:34:19;;;;;;;13.00;8.80;;;14.00;99.90;;;;;;5081304;28;20444;-81
2020/12/16 09:36:46;;;;;;;9.40;8.30;;;14.40;99.90;;;;;;5081328;28;20476;-80
2020/12/16 09:39:12;;;;;;;12.23;9.10;;;15.10;99.90;;;;;;5082323;28;20427;-80
2020/12/16 09:41:43;;;;;;;11.47;8.33;;;15.50;99.90;;;;;;5082421;28;20463;-79
2020/12/16 09:44:24;;;;;;;8.77;7.87;;;15.00;99.90;;;;;;5081523;28;20436;-80
2020/12/16 09:46:50;;;;;;;8.57;6.83;;;14.60;99.90;;;;;;5082440;28;20594;-80
2020/12/16 09:49:19;;;;;;;7.83;5.37;;;13.80;99.90;;;;;;5081827;28;20989;-79
2020/12/16 09:51:45;;;;;;;7.87;5.90;;;13.00;99.90;;;;;;5080964;28;20443;-81
2020/12/16 09:54:25;;;;;;;7.85;5.55;;;12.50;99.90;;;;;;5081122;28;20443;-80
2020/12/16 09:56:52;;;;;;;6.93;5.40;;;12.00;99.90;;;;;;5080353;28;20223;-80
2020/12/16 09:59:18;;;;;;;7.43;5.97;;;11.80;99.90;;;;;;5080238;28;20451;-81
2020/12/16 10:01:49;;;;;;;6.40;5.80;;;11.40;99.90;;;;;;5080502;28;20204;-81
2020/12/16 10:04:15;;;;;;;7.95;5.47;;;11.20;99.90;;;;;;5080471;28;20201;-79
2020/12/16 10:06:41;;;;;;;9.80;6.57;;;10.90;99.90;;;;;;5079179;28;20223;-80
2020/12/16 10:09:10;;;;;;;9.23;6.60;;;10.90;99.90;;;;;;5080037;28;20217;-80
2020/12/16 10:11:37;;;;;;;12.05;6.25;;;10.90;99.90;;;;;;5080952;28;20201;-81
2020/12/16 10:14:03;;;;;;;9.82;6.13;;;10.80;99.90;;;;;;5079330;28;20189;-80
2020/12/16 10:16:31;;;;;;;8.63;6.55;;;10.70;99.90;;;;;;5080209;28;20219;-79
2020/12/16 10:19:00;;;;;;;9.00;6.32;;;10.60;99.90;;;;;;5083489;28;20193;-80
2020/12/16 10:21:29;;;;;;;9.05;6.32;;;10.50;99.90;;;;;;5083598;28;20292;-80
2020/12/16 10:23:55;;;;;;;10.10;7.32;;;10.50;99.90;;;;;;5090857;28;20200;-82
2020/12/16 10:26:21;;;;;;;8.45;6.70;;;10.70;99.90;;;;;;5090053;28;20232;-82
2020/12/16 10:28:47;;;;;;;9.55;6.35;;;10.90;99.90;;;;;;5091699;28;20257;-82
2020/12/16 10:31:14;;;;;;;7.93;6.28;;;11.40;99.90;;;;;;5091853;28;20370;-80
2020/12/16 10:33:40;;;;;;;6.25;5.47;;;11.90;99.90;;;;;;5090684;28;20474;-82
2020/12/16 10:36:12;;;;;;;6.15;4.97;;;12.30;99.90;;;;;;5090501;28;20316;-80
2020/12/16 10:38:38;;;;;;;5.03;4.57;;;12.60;99.90;;;;;;5091715;28;20216;-80
2020/12/16 10:41:04;;;;;;;5.13;4.63;;;12.90;99.90;;;;;;5090613;28;20194;-80
2020/12/16 10:43:31;;;;;;;5.60;5.10;;;12.80;99.90;;;;;;5090243;28;20499;-83
2020/12/16 10:45:57;;;;;;;5.33;4.83;;;13.40;99.90;;;;;;5090745;28;20456;-83
2020/12/16 10:48:23;;;;;;;4.57;4.23;;;13.70;99.90;;;;;;5090895;28;20469;-82
2020/12/16 10:50:50;;;;;;;4.13;3.80;;;13.70;99.90;;;;;;5091227;28;20422;-83
2020/12/16 10:53:17;;;;;;;5.00;4.60;;;13.80;99.90;;;;;;5090933;28;20535;-82
2020/12/16 10:55:43;;;;;;;5.80;5.27;;;14.10;99.90;;;;;;5091209;28;20532;-81
2020/12/16 10:58:11;;;;;;;4.47;4.03;;;13.80;99.90;;;;;;5088619;28;21131;-82
2020/12/16 11:00:37;;;;;;;5.50;5.00;;;13.50;99.90;;;;;;5091080;28;20425;-82
2020/12/16 11:03:03;;;;;;;6.63;4.43;;;13.00;99.90;;;;;;5092806;28;20469;-82
2020/12/16 11:05:30;;;;;;;5.90;5.30;;;12.90;99.90;;;;;;5090162;28;20480;-81
2020/12/16 11:07:56;;;;;;;4.85;4.45;;;12.90;99.90;;;;;;5089827;28;20503;-82
2020/12/16 11:10:23;;;;;;;5.17;4.67;;;13.00;99.90;;;;;;5089973;28;20200;-78
2020/12/16 11:12:49;;;;;;;4.93;4.43;;;13.20;99.90;;;;;;5090225;28;20501;-80
2020/12/16 11:15:15;;;;;;;6.00;5.40;;;13.30;99.90;;;;;;5089277;28;20444;-82
2020/12/16 11:17:42;;;;;;;3.93;3.63;;;13.20;99.90;;;;;;5090269;28;20428;-83
2020/12/16 11:20:08;;;;;;;5.37;4.60;;;13.00;99.90;;;;;;5090128;28;20452;-83
2020/12/16 11:22:37;;;;;;;5.07;4.57;;;13.00;99.90;;;;;;5090185;28;20461;-81
2020/12/16 11:25:03;;;;;;;6.53;5.37;;;12.60;99.90;;;;;;5090257;28;20455;-82
2020/12/16 11:27:31;;;;;;;5.40;4.90;;;12.60;99.90;;;;;;5090434;28;20460;-82
2020/12/16 11:29:57;;;;;;;4.23;3.73;;;12.90;99.90;;;;;;5089747;28;20625;-82
2020/12/16 11:32:23;;;;;;;4.40;4.00;;;13.00;99.90;;;;;;5092194;28;20495;-82
2020/12/16 11:34:50;;;;;;;4.00;3.70;;;13.10;99.90;;;;;;5094524;28;20515;-79
2020/12/16 11:37:16;;;;;;;4.13;3.83;;;13.40;99.90;;;;;;5092235;28;20448;-81
2020/12/16 11:39:43;;;;;;;4.83;4.20;;;13.60;99.90;;;;;;5093474;28;20442;-82
2020/12/16 11:42:09;;;;;;;5.40;4.00;;;13.60;99.90;;;;;;5092694;28;20428;-82
2020/12/16 11:44:36;;;;;;;4.17;3.63;;;13.60;99.90;;;;;;5092723;28;20436;-81
2020/12/16 11:47:03;;;;;;;4.03;3.73;;;13.80;99.90;;;;;;5092620;28;20525;-79
2020/12/16 11:49:30;;;;;;;4.22;3.83;;;13.60;99.90;;;;;;5092727;28;20472;-81
2020/12/16 11:51:56;;;;;;;4.30;3.90;;;13.40;99.90;;;;;;5092158;28;20275;-82
2020/12/16 11:54:23;;;;;;;4.43;4.03;;;13.40;99.90;;;;;;5092924;28;20494;-84
2020/12/16 11:56:50;;;;;;;3.67;3.37;;;13.40;99.90;;;;;;5091210;28;20464;-81
2020/12/16 11:59:16;;;;;;;4.70;4.23;;;13.50;99.90;;;;;;5090639;28;20433;-83
2020/12/16 12:01:44;;;;;;;5.30;4.80;;;13.80;99.90;;;;;;5089476;28;20893;-81
2020/12/16 12:04:10;;;;;;;4.90;3.60;;;13.90;99.90;;;;;;5089841;28;20436;-81
2020/12/16 12:06:36;;;;;;;4.10;3.67;;;13.80;99.90;;;;;;5086988;28;20463;-82
2020/12/16 12:09:04;;;;;;;3.97;3.50;;;14.00;99.90;;;;;;5078330;28;20813;-80
2020/12/16 12:11:30;;;;;;;3.67;3.37;;;13.90;99.90;;;;;;5080374;28;20900;-81
2020/12/16 12:13:57;;;;;;;5.80;4.23;;;13.70;99.90;;;;;;5082370;28;20432;-81
2020/12/16 12:16:23;;;;;;;4.10;3.80;;;13.90;99.90;;;;;;5085051;28;20459;-80
2020/12/16 12:18:50;;;;;;;6.37;4.00;;;13.30;99.90;;;;;;5088245;28;20432;-82
2020/12/16 12:21:17;;;;;;;4.00;3.53;;;13.30;99.90;;;;;;5087878;28;20497;-80
2020/12/16 12:23:44;;;;;;;5.40;4.90;;;12.90;99.90;;;;;;5087696;28;20433;-81
2020/12/16 12:26:10;;;;;;;4.87;4.40;;;12.70;99.90;;;;;;5086150;28;20516;-79
2020/12/16 12:28:36;;;;;;;4.43;4.03;;;12.70;99.90;;;;;;5088258;28;20507;-81
2020/12/16 12:31:03;;;;;;;4.57;4.17;;;12.60;99.90;;;;;;5088594;28;20430;-82
2020/12/16 12:33:29;;;;;;;4.90;4.50;;;12.60;99.90;;;;;;5088729;28;20447;-80
2020/12/16 12:35:59;;;;;;;4.33;3.93;;;12.60;99.90;;;;;;5087016;28;20463;-82
2020/12/16 12:38:26;;;;;;;4.37;3.90;;;12.40;99.90;;;;;;5088889;28;20425;-80
2020/12/16 12:40:52;;;;;;;3.90;3.60;;;12.40;99.90;;;;;;5089564;28;20422;-78
2020/12/16 12:43:18;;;;;;;3.47;3.20;;;12.40;99.90;;;;;;5087998;28;20504;-80